Time;durP1;ratioP1;P1;durP2;ratioP2;P2;SDS_P1;SDS_P2;PMS_P1;PMS_P2;Temp;Humidity;BMP_temperature;BMP_pressure;BME280_temperature;BME280_humidity;BME280_pressure;Samples;Min_cycle;Max_cycle;Signal;HPM_P1;HPM_P2
2023/04/14 00:00:32;;;;;;;5.95;2.20;;;11.40;99.90;;;;;;5055572;28;20071;-38
2023/04/14 00:02:59;;;;;;;5.88;2.05;;;11.40;99.90;;;;;;5055527;28;20062;-37
2023/04/14 00:05:29;;;;;;;6.45;2.20;;;11.40;99.90;;;;;;5054516;28;20029;-36
2023/04/14 00:07:55;;;;;;;5.05;2.03;;;11.40;99.90;;;;;;5054699;28;20025;-37
2023/04/14 00:10:21;;;;;;;5.25;2.03;;;11.40;99.90;;;;;;5056345;28;20390;-37
2023/04/14 00:12:46;;;;;;;5.63;1.95;;;11.40;99.90;;;;;;5055480;28;20047;-37
2023/04/14 00:15:12;;;;;;;7.47;2.15;;;11.40;99.90;;;;;;5055086;28;20071;-37
2023/04/14 00:17:37;;;;;;;7.22;2.08;;;11.40;99.90;;;;;;5054265;28;20052;-38
2023/04/14 00:20:03;;;;;;;7.82;2.22;;;11.40;99.90;;;;;;5055884;28;20053;-36
2023/04/14 00:22:29;;;;;;;4.28;1.77;;;11.40;99.90;;;;;;5055917;28;20029;-36
2023/04/14 00:24:55;;;;;;;6.47;2.50;;;11.40;99.90;;;;;;5054777;28;20049;-38
2023/04/14 00:27:20;;;;;;;8.77;2.28;;;11.40;99.90;;;;;;5054824;28;20021;-39
2023/04/14 00:29:46;;;;;;;8.27;2.03;;;11.40;99.90;;;;;;5054557;28;20024;-39
2023/04/14 00:32:12;;;;;;;6.80;2.10;;;11.30;99.90;;;;;;5054646;28;20140;-38
2023/04/14 00:34:37;;;;;;;6.82;1.95;;;11.40;99.90;;;;;;5055757;28;20036;-38
2023/04/14 00:37:03;;;;;;;3.92;1.90;;;11.30;99.90;;;;;;5054425;28;20032;-36
2023/04/14 00:39:29;;;;;;;6.85;2.22;;;11.30;99.90;;;;;;5054771;28;20394;-38
2023/04/14 00:41:55;;;;;;;6.50;1.90;;;11.30;99.90;;;;;;5054756;28;20049;-36
2023/04/14 00:44:22;;;;;;;5.57;1.90;;;11.30;99.90;;;;;;5055596;28;20036;-39
2023/04/14 00:46:48;;;;;;;5.75;1.92;;;11.30;99.90;;;;;;5053700;28;20029;-36
2023/04/14 00:49:15;;;;;;;8.02;2.20;;;11.30;99.90;;;;;;5053744;28;20040;-37
2023/04/14 00:51:44;;;;;;;6.40;2.13;;;11.30;99.90;;;;;;5054140;28;20441;-39
2023/04/14 00:54:10;;;;;;;7.85;1.95;;;11.30;99.90;;;;;;5055634;28;20017;-38
2023/04/14 00:56:36;;;;;;;5.65;2.15;;;11.30;99.90;;;;;;5054827;28;20025;-37
2023/04/14 00:59:02;;;;;;;4.20;1.90;;;11.30;99.90;;;;;;5054568;28;20025;-37
2023/04/14 01:01:28;;;;;;;8.30;2.00;;;11.30;99.90;;;;;;5054913;28;20071;-38
2023/04/14 01:03:56;;;;;;;7.50;2.08;;;11.30;99.90;;;;;;5055802;28;20090;-37
2023/04/14 01:06:21;;;;;;;6.65;1.90;;;11.30;99.90;;;;;;5053881;28;20514;-38
2023/04/14 01:08:50;;;;;;;6.57;1.80;;;11.30;99.90;;;;;;5054940;28;20057;-37
2023/04/14 01:11:23;;;;;;;5.20;1.80;;;11.20;99.90;;;;;;5055132;28;20587;-37
2023/04/14 01:13:56;;;;;;;5.78;2.33;;;11.20;99.90;;;;;;5054044;28;20119;-38
2023/04/14 01:16:32;;;;;;;10.80;3.08;;;11.20;99.90;;;;;;5053939;28;20025;-36
2023/04/14 01:19:19;;;;;;;10.13;2.60;;;11.20;99.90;;;;;;5055467;28;20111;-38
2023/04/14 01:21:49;;;;;;;7.38;2.50;;;11.20;99.90;;;;;;5054273;28;20105;-37
2023/04/14 01:24:55;;;;;;;6.45;1.75;;;11.20;99.90;;;;;;5054197;28;20021;-38
2023/04/14 01:27:40;;;;;;;7.20;1.77;;;11.20;99.90;;;;;;5050318;28;20534;-37
2023/04/14 01:30:30;;;;;;;7.97;1.98;;;11.20;99.90;;;;;;5054146;28;20025;-38
2023/04/14 01:33:00;;;;;;;5.05;1.75;;;11.20;99.90;;;;;;5053825;28;20021;-37
2023/04/14 01:35:37;;;;;;;8.73;1.90;;;11.20;99.90;;;;;;5053910;28;20024;-37
2023/04/14 01:38:13;;;;;;;7.70;2.20;;;11.10;99.90;;;;;;5052441;28;20053;-36
2023/04/14 01:40:41;;;;;;;7.13;2.10;;;11.10;99.90;;;;;;5053363;28;20104;-39
2023/04/14 01:43:11;;;;;;;8.18;1.88;;;11.20;99.90;;;;;;5053856;28;20029;-37
2023/04/14 01:45:51;;;;;;;9.05;2.20;;;11.20;99.90;;;;;;5052440;28;20360;-36
2023/04/14 01:48:18;;;;;;;9.10;2.17;;;11.10;99.90;;;;;;5053756;28;20029;-35
2023/04/14 01:50:45;;;;;;;7.30;2.03;;;11.10;99.90;;;;;;5052887;28;20017;-38
2023/04/14 01:53:13;;;;;;;6.47;2.15;;;11.10;99.90;;;;;;5053735;28;20044;-35
2023/04/14 01:55:40;;;;;;;6.10;1.92;;;11.10;99.90;;;;;;5053408;28;20430;-36
2023/04/14 01:58:08;;;;;;;7.80;2.00;;;11.10;99.90;;;;;;5052560;28;20032;-38
2023/04/14 02:00:36;;;;;;;5.53;1.70;;;11.10;99.90;;;;;;5053865;28;20025;-35
2023/04/14 02:03:03;;;;;;;6.85;1.90;;;11.10;99.90;;;;;;5052621;28;20383;-37
2023/04/14 02:05:30;;;;;;;5.70;1.70;;;11.10;99.90;;;;;;5052814;28;20028;-38
2023/04/14 02:07:58;;;;;;;6.65;2.10;;;11.10;99.90;;;;;;5052976;28;20522;-38
2023/04/14 02:10:24;;;;;;;5.28;1.70;;;11.10;99.90;;;;;;5053858;28;20021;-37
2023/04/14 02:12:53;;;;;;;6.60;1.73;;;11.10;99.90;;;;;;5053128;28;20494;-37
2023/04/14 02:15:21;;;;;;;6.05;2.03;;;11.10;99.90;;;;;;5051958;28;20499;-38
2023/04/14 02:17:49;;;;;;;5.38;1.60;;;11.00;99.90;;;;;;5053003;28;20049;-37
2023/04/14 02:20:15;;;;;;;12.80;2.10;;;11.10;99.90;;;;;;5053007;28;20036;-37
2023/04/14 02:22:41;;;;;;;8.30;1.92;;;11.00;99.90;;;;;;5052734;28;20053;-37
2023/04/14 02:25:08;;;;;;;7.00;1.80;;;11.10;99.90;;;;;;5053277;28;20052;-38
2023/04/14 02:28:01;;;;;;;6.57;2.08;;;11.00;99.90;;;;;;5052419;28;20082;-36
2023/04/14 02:30:30;;;;;;;7.60;2.10;;;11.00;99.90;;;;;;5052584;28;20029;-36
2023/04/14 02:33:09;;;;;;;6.38;1.83;;;11.00;99.90;;;;;;5053313;28;20171;-35
2023/04/14 02:35:47;;;;;;;6.45;1.95;;;11.00;99.90;;;;;;5053115;28;20021;-36
2023/04/14 02:38:22;;;;;;;7.18;2.22;;;11.00;99.90;;;;;;5051541;28;20021;-38
2023/04/14 02:40:48;;;;;;;5.20;1.70;;;11.00;99.90;;;;;;5052670;28;20106;-39
2023/04/14 02:43:23;;;;;;;5.80;1.55;;;11.00;99.90;;;;;;5052778;28;20036;-37
2023/04/14 02:45:51;;;;;;;6.32;1.55;;;11.00;99.90;;;;;;5051740;28;20117;-37
2023/04/14 02:48:20;;;;;;;5.38;1.85;;;10.90;99.90;;;;;;5052137;28;20056;-37
2023/04/14 02:50:49;;;;;;;5.72;1.48;;;10.90;99.90;;;;;;5051903;28;20029;-37
2023/04/14 02:53:19;;;;;;;4.30;1.83;;;10.90;99.90;;;;;;5052371;28;20021;-36
2023/04/14 02:55:48;;;;;;;6.38;1.92;;;10.90;99.90;;;;;;5052487;28;20018;-38
2023/04/14 02:58:14;;;;;;;6.95;1.60;;;10.90;99.90;;;;;;5051950;28;20025;-37
2023/04/14 03:00:40;;;;;;;7.32;1.67;;;10.90;99.90;;;;;;5052320;28;20037;-37
2023/04/14 03:03:08;;;;;;;7.38;2.08;;;10.90;99.90;;;;;;5052123;28;20384;-37
2023/04/14 03:05:34;;;;;;;7.25;1.85;;;10.90;99.90;;;;;;5052117;28;20028;-36
2023/04/14 03:08:02;;;;;;;5.82;1.70;;;10.90;99.90;;;;;;5051528;28;20041;-38
2023/04/14 03:10:28;;;;;;;5.45;1.60;;;10.90;99.90;;;;;;5051765;28;20443;-38
2023/04/14 03:12:55;;;;;;;7.13;1.92;;;10.80;99.90;;;;;;5052230;28;20049;-37
2023/04/14 03:15:21;;;;;;;5.90;1.73;;;10.80;99.90;;;;;;5051068;28;20086;-37
2023/04/14 03:17:52;;;;;;;5.47;1.77;;;10.80;99.90;;;;;;5051582;28;20017;-38
2023/04/14 03:20:22;;;;;;;18.45;5.65;;;10.80;99.90;;;;;;5052555;28;20047;-35
2023/04/14 03:22:56;;;;;;;7.75;2.35;;;10.80;99.90;;;;;;5052400;28;20032;-38
2023/04/14 03:25:26;;;;;;;8.98;2.30;;;10.80;99.90;;;;;;5051661;28;20037;-36
2023/04/14 03:27:54;;;;;;;9.27;2.28;;;10.80;99.90;;;;;;5050357;28;20086;-36
2023/04/14 03:30:24;;;;;;;6.72;1.92;;;10.80;99.90;;;;;;5050844;28;20079;-38
2023/04/14 03:32:51;;;;;;;11.15;1.80;;;10.80;99.90;;;;;;5052168;28;20036;-38
2023/04/14 03:35:20;;;;;;;6.22;1.83;;;10.80;99.90;;;;;;5050758;28;20411;-38
2023/04/14 03:37:49;;;;;;;7.75;1.83;;;10.70;99.90;;;;;;5050342;28;20113;-37
2023/04/14 03:40:16;;;;;;;7.47;1.90;;;10.70;99.90;;;;;;5051669;28;20028;-37
2023/04/14 03:42:44;;;;;;;6.72;1.83;;;10.70;99.90;;;;;;5050666;28;20021;-37
2023/04/14 03:45:11;;;;;;;5.80;2.10;;;10.70;99.90;;;;;;5051747;28;20506;-37
2023/04/14 03:47:37;;;;;;;3.35;1.38;;;10.70;99.90;;;;;;5051194;28;20029;-35
2023/04/14 03:50:08;;;;;;;7.40;1.70;;;10.70;99.90;;;;;;5051679;28;20028;-39
2023/04/14 03:52:36;;;;;;;7.30;2.10;;;10.70;99.90;;;;;;5051559;28;20048;-37
2023/04/14 03:55:05;;;;;;;7.35;1.95;;;10.70;99.90;;;;;;5051963;28;20021;-37
2023/04/14 03:57:32;;;;;;;8.52;1.75;;;10.70;99.90;;;;;;5051417;28;20506;-37
2023/04/14 04:00:01;;;;;;;8.93;2.00;;;10.70;99.90;;;;;;5051216;28;20163;-35
2023/04/14 04:02:28;;;;;;;5.28;2.13;;;10.70;99.90;;;;;;5050473;28;20052;-38
2023/04/14 04:04:55;;;;;;;4.65;1.75;;;10.70;99.90;;;;;;5051785;28;20028;-37
2023/04/14 04:07:21;;;;;;;7.03;2.20;;;10.60;99.90;;;;;;5051345;28;20029;-37
2023/04/14 04:09:49;;;;;;;4.85;1.70;;;10.60;99.90;;;;;;5052244;28;20108;-37
2023/04/14 04:12:18;;;;;;;6.18;1.77;;;10.60;99.90;;;;;;5051876;28;20104;-38
2023/04/14 04:14:44;;;;;;;6.57;1.83;;;10.60;99.90;;;;;;5051253;28;20021;-37
2023/04/14 04:17:13;;;;;;;5.90;1.90;;;10.60;99.90;;;;;;5050967;28;20368;-37
2023/04/14 04:19:41;;;;;;;6.90;2.30;;;10.60;99.90;;;;;;5051375;28;20079;-39
2023/04/14 04:22:07;;;;;;;6.05;1.52;;;10.60;99.90;;;;;;5051260;28;20033;-39
2023/04/14 04:24:38;;;;;;;5.60;1.95;;;10.60;99.90;;;;;;5050768;28;20029;-38
2023/04/14 04:27:04;;;;;;;7.18;2.25;;;10.60;99.90;;;;;;5052440;28;20035;-38
2023/04/14 04:29:30;;;;;;;6.03;1.73;;;10.60;99.90;;;;;;5055512;28;20494;-36
2023/04/14 04:31:56;;;;;;;8.27;1.65;;;10.60;99.90;;;;;;5055250;28;20106;-38
2023/04/14 04:34:25;;;;;;;8.32;2.00;;;10.50;99.90;;;;;;5055214;28;20478;-37
2023/04/14 04:36:51;;;;;;;6.90;1.83;;;10.50;99.90;;;;;;5053563;28;20025;-35
2023/04/14 04:39:18;;;;;;;5.93;1.80;;;10.50;99.90;;;;;;5055016;28;20082;-38
2023/04/14 04:41:44;;;;;;;5.70;1.75;;;10.50;99.90;;;;;;5055039;28;20025;-39
2023/04/14 04:44:10;;;;;;;7.93;2.10;;;10.50;99.90;;;;;;5054808;28;20025;-38
2023/04/14 04:46:49;;;;;;;5.25;1.95;;;10.50;99.90;;;;;;5053789;28;20040;-36
2023/04/14 04:49:14;;;;;;;7.38;1.95;;;10.50;99.90;;;;;;5054814;28;20033;-38
2023/04/14 04:51:40;;;;;;;11.50;2.10;;;10.50;99.90;;;;;;5054412;28;20033;-37
2023/04/14 04:54:06;;;;;;;4.50;1.50;;;10.50;99.90;;;;;;5054486;28;20419;-36
2023/04/14 04:56:32;;;;;;;5.18;1.70;;;10.50;99.90;;;;;;5054597;28;20493;-38
2023/04/14 04:58:58;;;;;;;6.35;1.70;;;10.50;99.90;;;;;;5055005;28;20029;-38
2023/04/14 05:01:24;;;;;;;4.65;1.80;;;10.50;99.90;;;;;;5054180;28;20024;-38
2023/04/14 05:03:49;;;;;;;7.57;2.25;;;10.50;99.90;;;;;;5054362;28;20076;-36
2023/04/14 05:06:15;;;;;;;8.00;2.67;;;10.50;99.90;;;;;;5053187;28;20052;-38
2023/04/14 05:08:42;;;;;;;7.13;2.70;;;10.50;99.90;;;;;;5054469;28;20025;-39
2023/04/14 05:11:08;;;;;;;5.88;1.92;;;10.50;99.90;;;;;;5054359;28;20029;-36
2023/04/14 05:13:33;;;;;;;8.32;2.45;;;10.50;99.90;;;;;;5054464;28;20036;-37
2023/04/14 05:16:06;;;;;;;5.22;1.88;;;10.50;99.90;;;;;;5053850;28;20090;-38
2023/04/14 05:18:33;;;;;;;5.35;1.90;;;10.40;99.90;;;;;;5055053;28;20425;-37
2023/04/14 05:21:06;;;;;;;8.02;2.65;;;10.40;99.90;;;;;;5054031;28;20033;-35
2023/04/14 05:23:33;;;;;;;6.47;2.50;;;10.40;99.90;;;;;;5053131;28;20483;-37
2023/04/14 05:25:59;;;;;;;7.50;2.75;;;10.40;99.90;;;;;;5053295;28;20041;-36
2023/04/14 05:28:26;;;;;;;6.00;2.65;;;10.40;99.90;;;;;;5053756;28;20045;-37
2023/04/14 05:30:51;;;;;;;5.25;2.10;;;10.40;99.90;;;;;;5053337;28;20135;-37
2023/04/14 05:33:17;;;;;;;8.73;2.33;;;10.40;99.90;;;;;;5054219;28;20158;-37
2023/04/14 05:35:45;;;;;;;6.10;2.22;;;10.40;99.90;;;;;;5054031;28;20032;-40
2023/04/14 05:38:12;;;;;;;7.10;1.85;;;10.40;99.90;;;;;;5053140;28;20028;-38
2023/04/14 05:40:38;;;;;;;8.10;1.80;;;10.40;99.90;;;;;;5052769;28;20051;-37
2023/04/14 05:43:04;;;;;;;9.90;2.50;;;10.40;99.90;;;;;;5054187;28;20472;-35
2023/04/14 05:45:30;;;;;;;5.65;1.70;;;10.40;99.90;;;;;;5054025;28;20021;-39
2023/04/14 05:47:56;;;;;;;6.78;1.95;;;10.40;99.90;;;;;;5053673;28;20116;-38
2023/04/14 05:50:22;;;;;;;6.88;1.70;;;10.40;99.90;;;;;;5053877;28;20167;-38
2023/04/14 05:52:48;;;;;;;5.80;1.67;;;10.40;99.90;;;;;;5053235;28;20108;-39
2023/04/14 05:55:14;;;;;;;5.50;1.77;;;10.50;99.90;;;;;;5053799;28;20025;-37
2023/04/14 05:57:40;;;;;;;5.05;1.83;;;10.50;99.90;;;;;;5053219;28;20024;-38
2023/04/14 06:00:07;;;;;;;5.40;1.45;;;10.50;99.90;;;;;;5053388;28;20040;-36
2023/04/14 06:02:33;;;;;;;4.72;1.58;;;10.50;99.90;;;;;;5053470;28;20074;-37
2023/04/14 06:04:59;;;;;;;4.50;1.42;;;10.50;99.90;;;;;;5053642;28;20029;-36
2023/04/14 06:07:25;;;;;;;5.97;1.90;;;10.50;99.90;;;;;;5051792;28;20025;-35
2023/04/14 06:09:50;;;;;;;6.47;1.75;;;10.50;99.90;;;;;;5052837;28;20368;-37
2023/04/14 06:12:16;;;;;;;5.97;2.00;;;10.50;99.90;;;;;;5053877;28;20517;-36
2023/04/14 06:14:41;;;;;;;5.53;1.73;;;10.50;99.90;;;;;;5053006;28;20021;-38
2023/04/14 06:17:07;;;;;;;5.57;1.83;;;10.50;99.90;;;;;;5052498;28;20037;-39
2023/04/14 06:19:34;;;;;;;4.97;1.67;;;10.50;99.90;;;;;;5053725;28;20475;-37
2023/04/14 06:22:00;;;;;;;8.57;1.75;;;10.50;99.90;;;;;;5053172;28;20055;-37
2023/04/14 06:24:25;;;;;;;6.65;1.80;;;10.50;99.90;;;;;;5052634;28;20033;-38
2023/04/14 06:26:51;;;;;;;6.45;1.70;;;10.50;99.90;;;;;;5051705;28;20060;-38
2023/04/14 06:29:18;;;;;;;6.20;1.80;;;10.60;99.90;;;;;;5052790;28;20032;-37
2023/04/14 06:31:44;;;;;;;4.68;1.58;;;10.60;99.90;;;;;;5052980;28;20498;-38
2023/04/14 06:34:09;;;;;;;4.75;1.48;;;10.60;99.90;;;;;;5052906;28;20029;-37
2023/04/14 06:36:35;;;;;;;4.72;1.33;;;10.60;99.90;;;;;;5053048;28;20029;-35
2023/04/14 06:39:01;;;;;;;5.05;1.30;;;10.60;99.90;;;;;;5053645;28;20463;-38
2023/04/14 06:41:27;;;;;;;5.18;1.50;;;10.70;99.90;;;;;;5052010;28;20119;-38
2023/04/14 06:43:52;;;;;;;4.75;1.50;;;10.70;99.90;;;;;;5052341;28;20063;-37
2023/04/14 06:46:18;;;;;;;8.07;1.45;;;10.70;99.90;;;;;;5052270;28;20052;-36
2023/04/14 06:48:44;;;;;;;5.80;1.35;;;10.70;99.90;;;;;;5052319;28;20029;-39
2023/04/14 06:51:11;;;;;;;3.35;1.40;;;10.70;99.90;;;;;;5053372;28;20028;-37
2023/04/14 06:53:37;;;;;;;5.95;1.20;;;10.70;99.90;;;;;;5052081;28;20024;-39
2023/04/14 06:56:04;;;;;;;5.70;1.48;;;10.70;99.90;;;;;;5052344;28;20100;-38
2023/04/14 06:58:31;;;;;;;5.05;1.50;;;10.70;99.90;;;;;;5052037;28;20025;-36
2023/04/14 07:00:58;;;;;;;5.55;1.60;;;10.80;99.90;;;;;;5051858;28;20048;-39
2023/04/14 07:03:24;;;;;;;4.22;1.33;;;10.80;99.90;;;;;;5051142;28;20029;-38
2023/04/14 07:05:50;;;;;;;3.33;1.35;;;10.80;99.90;;;;;;5051360;28;20025;-39
2023/04/14 07:08:17;;;;;;;5.40;1.52;;;10.80;99.90;;;;;;5051509;28;20392;-37
2023/04/14 07:10:42;;;;;;;5.78;1.58;;;10.90;99.90;;;;;;5052845;28;20111;-38
2023/04/14 07:13:08;;;;;;;5.72;1.42;;;10.90;99.90;;;;;;5051763;28;20100;-36
2023/04/14 07:15:34;;;;;;;5.55;1.80;;;10.90;99.90;;;;;;5051118;28;20446;-38
2023/04/14 07:18:00;;;;;;;4.47;1.50;;;10.90;99.90;;;;;;5051859;28;20018;-38
2023/04/14 07:20:25;;;;;;;4.88;1.30;;;10.90;99.90;;;;;;5052887;28;20112;-36
2023/04/14 07:22:51;;;;;;;6.53;1.45;;;10.90;99.90;;;;;;5051959;28;20024;-36
2023/04/14 07:25:17;;;;;;;4.90;1.42;;;11.00;99.90;;;;;;5052169;28;20033;-38
2023/04/14 07:27:43;;;;;;;3.88;1.30;;;11.00;99.90;;;;;;5050885;28;20043;-38
2023/04/14 07:30:09;;;;;;;2.70;1.42;;;11.00;99.90;;;;;;5051269;28;20025;-36
2023/04/14 07:32:34;;;;;;;3.53;1.15;;;11.00;99.90;;;;;;5051630;28;20071;-39
2023/04/14 07:35:00;;;;;;;3.50;1.20;;;11.10;99.90;;;;;;5052137;28;20052;-38
2023/04/14 07:37:26;;;;;;;4.70;1.23;;;11.10;99.90;;;;;;5051517;28;20492;-38
2023/04/14 07:39:51;;;;;;;3.58;1.20;;;11.10;99.90;;;;;;5052738;28;20074;-39
2023/04/14 07:42:17;;;;;;;3.40;1.30;;;11.10;99.90;;;;;;5052461;28;20100;-38
2023/04/14 07:44:43;;;;;;;3.40;1.23;;;11.10;99.90;;;;;;5051892;28;20505;-37
2023/04/14 07:47:09;;;;;;;3.55;1.27;;;11.10;99.90;;;;;;5051706;28;20056;-39
2023/04/14 07:49:35;;;;;;;3.20;1.27;;;11.10;99.90;;;;;;5051085;28;20025;-36
2023/04/14 07:52:01;;;;;;;3.70;1.33;;;11.20;99.90;;;;;;5051113;28;20108;-39
2023/04/14 07:54:27;;;;;;;2.50;1.00;;;11.20;99.90;;;;;;5050948;28;20056;-38
2023/04/14 07:56:53;;;;;;;4.05;1.20;;;11.20;99.90;;;;;;5050624;28;20053;-38
2023/04/14 07:59:19;;;;;;;4.68;1.20;;;11.20;99.90;;;;;;5052036;28;20501;-36
2023/04/14 08:01:45;;;;;;;6.05;1.40;;;11.20;99.90;;;;;;5053829;28;20029;-37
2023/04/14 08:04:11;;;;;;;4.40;1.30;;;11.20;99.90;;;;;;5053784;28;20183;-37
2023/04/14 08:06:36;;;;;;;5.80;1.40;;;11.20;99.90;;;;;;5055718;28;20031;-37
2023/04/14 08:09:02;;;;;;;7.05;1.40;;;11.20;99.90;;;;;;5053732;28;20399;-35
2023/04/14 08:11:28;;;;;;;5.72;1.33;;;11.20;99.90;;;;;;5054427;28;20025;-35
2023/04/14 08:13:54;;;;;;;3.33;1.00;;;11.20;99.90;;;;;;5055493;28;20025;-34
2023/04/14 08:16:21;;;;;;;8.93;1.30;;;11.20;99.90;;;;;;5055257;28;20391;-37
2023/04/14 08:18:48;;;;;;;3.75;1.25;;;11.20;99.90;;;;;;5054761;28;20044;-35
2023/04/14 08:21:15;;;;;;;5.55;1.40;;;11.20;99.90;;;;;;5054144;28;20035;-36
2023/04/14 08:23:41;;;;;;;3.60;1.15;;;11.30;99.90;;;;;;5054247;28;20040;-36
2023/04/14 08:26:06;;;;;;;2.70;1.25;;;11.30;99.90;;;;;;5053615;28;20032;-35
2023/04/14 08:28:32;;;;;;;3.97;1.30;;;11.30;99.90;;;;;;5054930;28;20390;-34
2023/04/14 08:30:58;;;;;;;4.45;1.25;;;11.30;99.90;;;;;;5056146;28;20475;-33
2023/04/14 08:33:23;;;;;;;5.15;1.30;;;11.30;99.90;;;;;;5055551;28;20085;-36
2023/04/14 08:35:49;;;;;;;3.55;1.20;;;11.30;99.90;;;;;;5055702;28;20131;-37
2023/04/14 08:38:15;;;;;;;2.55;1.13;;;11.40;99.90;;;;;;5054593;28;20021;-35
2023/04/14 08:40:42;;;;;;;3.33;1.00;;;11.40;99.90;;;;;;5053922;28;20047;-36
2023/04/14 08:43:09;;;;;;;5.15;1.50;;;11.40;99.90;;;;;;5054219;28;20475;-36
2023/04/14 08:45:35;;;;;;;4.25;1.25;;;11.40;99.90;;;;;;5054780;28;20071;-37
2023/04/14 08:48:02;;;;;;;3.17;1.35;;;11.40;99.90;;;;;;5053293;28;20032;-35
2023/04/14 08:50:48;;;;;;;4.28;1.40;;;11.50;99.90;;;;;;5053744;28;20487;-35
2023/04/14 08:53:15;;;;;;;2.90;1.40;;;11.50;99.90;;;;;;5055108;28;20018;-45
2023/04/14 08:55:42;;;;;;;3.70;1.63;;;11.50;99.90;;;;;;5055887;28;20033;-44
2023/04/14 08:58:11;;;;;;;4.85;1.23;;;11.50;99.90;;;;;;5055649;28;20028;-44
2023/04/14 09:00:38;;;;;;;3.90;1.35;;;11.50;99.90;;;;;;5054501;28;20031;-43
2023/04/14 09:03:04;;;;;;;5.53;1.10;;;11.60;99.90;;;;;;5055793;28;20565;-44
2023/04/14 09:05:30;;;;;;;4.07;1.17;;;11.60;99.90;;;;;;5055425;28;20098;-45
2023/04/14 09:07:57;;;;;;;6.88;1.30;;;11.60;99.90;;;;;;5054798;28;20024;-44
2023/04/14 09:10:23;;;;;;;2.47;1.08;;;11.60;99.90;;;;;;5055269;28;20044;-45
2023/04/14 09:12:50;;;;;;;4.68;1.10;;;11.60;99.90;;;;;;5053432;28;20017;-46
2023/04/14 09:15:15;;;;;;;6.30;1.25;;;11.60;99.90;;;;;;5054609;28;20047;-37
2023/04/14 09:17:41;;;;;;;6.15;1.40;;;11.60;99.90;;;;;;5052803;28;20476;-35
2023/04/14 09:20:07;;;;;;;4.55;1.40;;;11.60;99.90;;;;;;5055038;28;20028;-36
2023/04/14 09:22:33;;;;;;;3.72;0.98;;;11.60;99.90;;;;;;5054270;28;20040;-37
2023/04/14 09:25:00;;;;;;;4.32;1.50;;;11.60;99.90;;;;;;5053739;28;20433;-38
2023/04/14 09:27:27;;;;;;;3.08;1.00;;;11.60;99.90;;;;;;5055255;28;20024;-37
2023/04/14 09:29:57;;;;;;;6.72;1.20;;;11.60;99.90;;;;;;5054971;28;20064;-37
2023/04/14 09:32:22;;;;;;;4.72;1.20;;;11.70;99.90;;;;;;5054636;28;20476;-36
2023/04/14 09:34:51;;;;;;;4.90;1.20;;;11.70;99.90;;;;;;5053382;28;20103;-36
2023/04/14 09:37:17;;;;;;;3.85;1.33;;;11.70;99.90;;;;;;5052502;28;20063;-37
2023/04/14 09:39:51;;;;;;;3.47;1.05;;;11.70;99.90;;;;;;5055210;28;20025;-38
2023/04/14 09:42:17;;;;;;;5.03;1.05;;;11.70;99.90;;;;;;5053558;28;20021;-40
2023/04/14 09:44:57;;;;;;;4.97;0.98;;;11.70;99.90;;;;;;5053851;28;20033;-38
2023/04/14 09:47:24;;;;;;;5.70;1.00;;;11.60;99.90;;;;;;5052148;28;20044;-39
2023/04/14 09:49:58;;;;;;;4.90;1.00;;;11.70;99.90;;;;;;5052696;28;20506;-36
2023/04/14 09:52:43;;;;;;;2.08;0.90;;;11.70;99.90;;;;;;5053607;28;20078;-36
2023/04/14 09:55:14;;;;;;;1.33;0.63;;;11.70;99.90;;;;;;5053334;28;20021;-37
2023/04/14 09:57:46;;;;;;;2.90;0.85;;;11.70;99.90;;;;;;5052957;28;20590;-37
2023/04/14 10:00:14;;;;;;;3.80;1.23;;;11.70;99.90;;;;;;5052568;28;20029;-35
2023/04/14 10:02:54;;;;;;;4.82;1.02;;;11.70;99.90;;;;;;5053250;28;20029;-37
2023/04/14 10:05:25;;;;;;;2.97;1.02;;;11.70;99.90;;;;;;5052249;28;20092;-37
2023/04/14 10:07:50;;;;;;;3.28;0.98;;;11.80;99.90;;;;;;5052786;28;20031;-37
2023/04/14 10:10:16;;;;;;;3.95;1.02;;;11.80;99.90;;;;;;5052565;28;20024;-38
2023/04/14 10:12:43;;;;;;;2.67;0.90;;;11.80;99.90;;;;;;5052231;28;20475;-37
2023/04/14 10:15:10;;;;;;;4.80;1.27;;;11.80;99.90;;;;;;5053386;28;20084;-35
2023/04/14 10:17:40;;;;;;;4.60;1.10;;;11.90;99.90;;;;;;5053253;28;20443;-39
2023/04/14 10:20:06;;;;;;;4.45;1.00;;;11.90;99.90;;;;;;5053293;28;20032;-34
2023/04/14 10:22:33;;;;;;;2.10;0.95;;;11.90;99.90;;;;;;5052306;28;20033;-35
2023/04/14 10:24:59;;;;;;;3.42;0.85;;;11.90;99.90;;;;;;5052228;28;20021;-35
2023/04/14 10:27:30;;;;;;;3.38;0.98;;;11.90;99.90;;;;;;5051789;28;20048;-36
2023/04/14 10:29:56;;;;;;;2.45;0.95;;;11.90;99.90;;;;;;5052186;28;20025;-38
2023/04/14 10:32:23;;;;;;;3.03;1.00;;;11.90;99.90;;;;;;5052185;28;20029;-39
2023/04/14 10:35:05;;;;;;;4.05;1.00;;;11.90;99.90;;;;;;5052317;28;20070;-38
2023/04/14 10:37:34;;;;;;;3.45;1.15;;;11.90;99.90;;;;;;5052134;28;20487;-39
2023/04/14 10:40:04;;;;;;;3.88;1.00;;;11.90;99.90;;;;;;5052536;28;20040;-39
2023/04/14 10:42:51;;;;;;;4.30;0.90;;;11.90;99.90;;;;;;5051869;28;20067;-36
2023/04/14 10:45:17;;;;;;;4.00;0.90;;;11.90;99.90;;;;;;5051866;28;20045;-36
2023/04/14 10:47:44;;;;;;;3.63;1.05;;;11.90;99.90;;;;;;5051326;28;20143;-37
2023/04/14 10:50:14;;;;;;;2.55;0.90;;;11.90;99.90;;;;;;5051787;28;20119;-37
2023/04/14 10:52:50;;;;;;;5.53;0.95;;;11.90;99.90;;;;;;5051799;28;20028;-35
2023/04/14 10:55:21;;;;;;;2.75;0.80;;;11.90;99.90;;;;;;5051948;28;20059;-37
2023/04/14 10:57:46;;;;;;;2.60;0.90;;;11.90;99.90;;;;;;5050878;28;20028;-37
2023/04/14 11:00:27;;;;;;;4.20;1.05;;;12.00;99.90;;;;;;5051498;28;20017;-37
2023/04/14 11:03:16;;;;;;;4.65;0.88;;;12.00;99.90;;;;;;5051216;28;20025;-36
2023/04/14 11:05:49;;;;;;;2.50;0.95;;;11.90;99.90;;;;;;5047485;28;20506;-37
2023/04/14 11:08:18;;;;;;;2.05;0.85;;;12.00;99.90;;;;;;5051116;28;20487;-36
2023/04/14 11:10:50;;;;;;;3.63;0.95;;;12.00;99.90;;;;;;5052037;28;20103;-39
2023/04/14 11:13:16;;;;;;;2.78;0.88;;;12.00;99.90;;;;;;5051564;28;20029;-37
2023/04/14 11:15:50;;;;;;;4.05;0.90;;;12.00;99.90;;;;;;5051264;28;20021;-38
2023/04/14 11:18:19;;;;;;;2.60;0.90;;;11.90;99.90;;;;;;5051596;28;20025;-37
2023/04/14 11:20:44;;;;;;;2.75;1.00;;;12.00;99.90;;;;;;5052386;28;20075;-37
2023/04/14 11:23:15;;;;;;;2.38;0.80;;;12.00;99.90;;;;;;5051210;28;20028;-37
2023/04/14 11:25:41;;;;;;;2.28;0.73;;;12.00;99.90;;;;;;5050777;28;20063;-36
2023/04/14 11:28:06;;;;;;;2.67;1.10;;;12.00;99.90;;;;;;5051291;28;20045;-37
2023/04/14 11:30:32;;;;;;;3.30;0.70;;;12.10;99.90;;;;;;5051221;28;20025;-36
2023/04/14 11:32:58;;;;;;;4.30;1.10;;;12.00;99.90;;;;;;5050946;28;20439;-37
2023/04/14 11:35:27;;;;;;;5.20;1.20;;;12.10;99.90;;;;;;5051146;28;20029;-37
2023/04/14 11:37:54;;;;;;;10.00;1.25;;;12.00;99.90;;;;;;5050425;28;20017;-36
2023/04/14 11:40:21;;;;;;;7.20;1.25;;;12.00;99.90;;;;;;5050906;28;20021;-36
2023/04/14 11:42:52;;;;;;;5.55;1.27;;;12.00;99.90;;;;;;5049836;28;20032;-36
2023/04/14 11:45:17;;;;;;;5.32;1.20;;;12.00;99.90;;;;;;5050686;28;20111;-38
2023/04/14 11:48:00;;;;;;;5.57;1.10;;;12.00;99.90;;;;;;5050611;28;20068;-34
2023/04/14 11:50:30;;;;;;;3.63;0.88;;;12.00;99.90;;;;;;5050762;28;20147;-34
2023/04/14 11:52:59;;;;;;;5.53;1.20;;;11.90;99.90;;;;;;5050714;28;20257;-34
2023/04/14 11:55:26;;;;;;;3.97;0.77;;;11.90;99.90;;;;;;5050690;28;20032;-34
2023/04/14 11:57:53;;;;;;;4.88;1.42;;;11.90;99.90;;;;;;5050368;28;20028;-34
2023/04/14 12:00:19;;;;;;;5.85;1.10;;;11.90;99.90;;;;;;5050562;28;20036;-35
2023/04/14 12:02:45;;;;;;;4.55;1.27;;;12.00;99.90;;;;;;5050720;28;20414;-39
2023/04/14 12:05:15;;;;;;;6.13;1.17;;;11.90;99.90;;;;;;5050763;28;20123;-39
2023/04/14 12:07:44;;;;;;;6.30;1.42;;;12.00;99.90;;;;;;5050507;28;20079;-40
2023/04/14 12:10:11;;;;;;;4.72;1.17;;;12.00;99.90;;;;;;5050804;28;20017;-35
2023/04/14 12:12:37;;;;;;;5.40;1.20;;;12.00;99.90;;;;;;5050454;28;20021;-39
2023/04/14 12:15:04;;;;;;;5.38;0.88;;;12.00;99.90;;;;;;5050376;28;20087;-34
2023/04/14 12:17:30;;;;;;;4.43;1.05;;;12.00;99.90;;;;;;5050044;28;20059;-35
2023/04/14 12:19:56;;;;;;;2.83;0.93;;;12.00;99.90;;;;;;5050453;28;20017;-35
2023/04/14 12:22:26;;;;;;;2.40;0.93;;;12.00;99.90;;;;;;5050456;28;20401;-36
2023/04/14 12:24:55;;;;;;;4.97;1.20;;;12.00;99.90;;;;;;5050330;28;20032;-35
2023/04/14 12:27:23;;;;;;;2.97;0.90;;;12.00;99.90;;;;;;5049829;28;20045;-40
2023/04/14 12:29:49;;;;;;;3.40;1.25;;;12.00;99.90;;;;;;5050198;28;20064;-35
2023/04/14 12:32:16;;;;;;;2.65;0.88;;;12.00;99.90;;;;;;5048997;28;20079;-35
2023/04/14 12:34:56;;;;;;;4.00;1.10;;;12.00;99.90;;;;;;5050193;28;20025;-37
2023/04/14 12:37:26;;;;;;;5.57;1.23;;;12.00;99.90;;;;;;5049794;28;20025;-36
2023/04/14 12:39:57;;;;;;;3.63;0.90;;;12.00;99.90;;;;;;5050244;28;20029;-35
2023/04/14 12:42:28;;;;;;;2.25;0.93;;;12.00;99.90;;;;;;5049663;28;20064;-35
2023/04/14 12:44:59;;;;;;;2.33;1.10;;;12.00;99.90;;;;;;5050079;28;20021;-39
2023/04/14 12:47:30;;;;;;;3.55;1.20;;;12.00;99.90;;;;;;5051296;28;20059;-36
2023/04/14 12:49:57;;;;;;;2.88;1.17;;;12.00;99.90;;;;;;5054974;28;20025;-36